Time;durP1;ratioP1;P1;durP2;ratioP2;P2;SDS_P1;SDS_P2;PMS_P1;PMS_P2;Temp;Humidity;BMP_temperature;BMP_pressure;BME280_temperature;BME280_humidity;BME280_pressure;Samples;Min_cycle;Max_cycle;Signal;HPM_P1;HPM_P2
2022/05/02 00:01:02;;;;;;;12.38;6.68;;;5.90;99.90;;;;;;5023443;28;177799;-74
2022/05/02 00:03:28;;;;;;;12.73;6.68;;;5.80;99.90;;;;;;4981160;28;20049;-74
2022/05/02 00:05:56;;;;;;;11.63;6.43;;;5.80;99.90;;;;;;4982268;28;199056;-74
2022/05/02 00:08:22;;;;;;;13.02;7.55;;;5.80;99.90;;;;;;4982706;28;20054;-74
2022/05/02 00:10:48;;;;;;;12.68;7.28;;;5.70;99.90;;;;;;4993777;28;246505;-73
2022/05/02 00:13:14;;;;;;;13.35;6.88;;;5.70;99.90;;;;;;5027929;28;20056;-75
2022/05/02 00:15:40;;;;;;;13.38;7.65;;;5.70;99.90;;;;;;4955975;28;255635;-75
2022/05/02 00:18:07;;;;;;;12.70;7.05;;;5.70;99.90;;;;;;5028587;28;20049;-74
2022/05/02 00:20:36;;;;;;;15.32;7.78;;;5.60;99.90;;;;;;4998498;28;168332;-74
2022/05/02 00:23:05;;;;;;;11.10;6.82;;;5.60;99.90;;;;;;4994785;28;20064;-73
2022/05/02 00:25:32;;;;;;;12.32;7.13;;;5.60;99.90;;;;;;4980245;28;231460;-74
2022/05/02 00:27:59;;;;;;;11.57;7.05;;;5.60;99.90;;;;;;5028403;28;20482;-73
2022/05/02 00:30:26;;;;;;;13.43;7.60;;;5.50;99.90;;;;;;4980175;28;248837;-73
2022/05/02 00:32:52;;;;;;;13.10;6.95;;;5.50;99.90;;;;;;5008833;28;20057;-73
2022/05/02 00:35:18;;;;;;;13.95;7.95;;;5.40;99.90;;;;;;4981470;28;119391;-73
2022/05/02 00:37:45;;;;;;;13.32;7.80;;;5.40;99.90;;;;;;5028630;28;20107;-73
2022/05/02 00:40:13;;;;;;;12.77;7.50;;;5.40;99.90;;;;;;4985011;28;27353;-74
2022/05/02 00:42:42;;;;;;;13.05;6.82;;;5.30;99.90;;;;;;5010936;28;20049;-74
2022/05/02 00:45:10;;;;;;;13.05;7.78;;;5.30;99.90;;;;;;4979388;28;90189;-74
2022/05/02 00:47:36;;;;;;;13.10;7.82;;;5.30;99.90;;;;;;5009800;28;20057;-74
2022/05/02 00:50:08;;;;;;;14.10;8.35;;;5.30;99.90;;;;;;4995202;28;215224;-74
2022/05/02 00:52:35;;;;;;;13.10;7.78;;;5.20;99.90;;;;;;5028291;28;20053;-74
2022/05/02 00:55:03;;;;;;;13.13;8.23;;;5.20;99.90;;;;;;4997766;28;50775;-74
2022/05/02 00:57:31;;;;;;;15.52;8.27;;;5.20;99.90;;;;;;5008574;28;20054;-74
2022/05/02 00:59:57;;;;;;;12.75;8.40;;;5.10;99.90;;;;;;4999876;28;24174;-74
2022/05/02 01:02:23;;;;;;;16.05;8.57;;;5.10;99.90;;;;;;5012583;28;20168;-74
2022/05/02 01:04:49;;;;;;;15.55;7.93;;;5.10;99.90;;;;;;4962253;28;189841;-74
2022/05/02 01:07:19;;;;;;;14.10;8.00;;;5.00;99.90;;;;;;5031078;28;20042;-74
2022/05/02 01:09:47;;;;;;;16.13;8.82;;;5.00;99.90;;;;;;4994820;28;60383;-74
2022/05/02 01:12:22;;;;;;;13.70;8.73;;;5.00;99.90;;;;;;5022689;28;20037;-74
2022/05/02 01:14:50;;;;;;;14.38;8.25;;;4.90;99.90;;;;;;4979666;28;128367;-75
2022/05/02 01:17:16;;;;;;;14.48;8.75;;;4.90;99.90;;;;;;5017227;28;20065;-75
2022/05/02 01:19:44;;;;;;;17.20;9.10;;;4.90;99.90;;;;;;4964910;28;73710;-74
2022/05/02 01:22:10;;;;;;;15.93;8.82;;;4.80;99.90;;;;;;5013022;28;20057;-75
2022/05/02 01:24:43;;;;;;;14.90;9.20;;;4.80;99.90;;;;;;4990451;28;227253;-74
2022/05/02 01:27:10;;;;;;;14.57;8.68;;;4.80;99.90;;;;;;5015047;28;20068;-74
2022/05/02 01:29:38;;;;;;;14.65;9.05;;;4.80;99.90;;;;;;4960624;28;34055;-77
2022/05/02 01:32:07;;;;;;;16.23;10.13;;;4.70;99.90;;;;;;5002074;28;20052;-74
2022/05/02 01:34:40;;;;;;;17.17;10.75;;;4.70;99.90;;;;;;4992983;28;206274;-74
2022/05/02 01:37:08;;;;;;;17.73;9.98;;;4.70;99.90;;;;;;5017066;28;20049;-73
2022/05/02 01:39:34;;;;;;;15.20;10.68;;;4.70;99.90;;;;;;4974744;28;175361;-74
2022/05/02 01:42:01;;;;;;;15.25;9.60;;;4.70;99.90;;;;;;5009086;28;20156;-73
2022/05/02 01:44:28;;;;;;;16.80;10.85;;;4.60;99.90;;;;;;4982528;28;20060;-73
2022/05/02 01:46:55;;;;;;;14.95;9.02;;;4.60;99.90;;;;;;5038017;28;20061;-73
2022/05/02 01:49:21;;;;;;;16.83;10.50;;;4.60;99.90;;;;;;4977278;28;216191;-73
2022/05/02 01:51:48;;;;;;;15.45;10.75;;;4.60;99.90;;;;;;5025177;28;20066;-73
2022/05/02 01:54:15;;;;;;;16.77;11.13;;;4.60;99.90;;;;;;4999057;28;20050;-73
2022/05/02 01:56:42;;;;;;;17.40;11.27;;;4.50;99.90;;;;;;5024723;28;20045;-74
2022/05/02 01:59:08;;;;;;;18.70;10.50;;;4.50;99.90;;;;;;4998097;28;42429;-74
2022/05/02 02:01:34;;;;;;;21.25;10.90;;;4.50;99.90;;;;;;5025940;28;20515;-74
2022/05/02 02:05:48;;;;;;;17.27;11.10;;;4.50;99.90;;;;;;4953413;28;166458;-75
2022/05/02 02:06:47;;;;;;;15.70;9.93;;;4.50;99.90;;;;;;5000476;28;20052;-75
2022/05/02 02:09:14;;;;;;;17.05;9.73;;;4.40;99.90;;;;;;4980092;28;157074;-73
2022/05/02 02:11:40;;;;;;;16.65;10.35;;;4.40;99.90;;;;;;5000028;28;20057;-74
2022/05/02 02:14:06;;;;;;;16.30;9.52;;;4.40;99.90;;;;;;4989872;28;160810;-74
2022/05/02 02:16:32;;;;;;;14.98;10.18;;;4.40;99.90;;;;;;5018657;28;20053;-73
2022/05/02 02:18:59;;;;;;;15.05;10.27;;;4.30;99.90;;;;;;4977884;28;244076;-73
2022/05/02 02:21:25;;;;;;;16.05;10.63;;;4.30;99.90;;;;;;5028776;28;20053;-73
2022/05/02 02:23:51;;;;;;;18.52;10.93;;;4.20;99.90;;;;;;5005457;28;20096;-73
2022/05/02 02:26:17;;;;;;;16.52;10.10;;;4.30;99.90;;;;;;5014303;28;20050;-73
2022/05/02 02:28:44;;;;;;;20.33;10.73;;;4.20;99.90;;;;;;5000962;28;20041;-75
2022/05/02 02:31:10;;;;;;;17.55;10.60;;;4.20;99.90;;;;;;5026803;28;92489;-74
2022/05/02 02:33:37;;;;;;;17.98;10.82;;;4.10;99.90;;;;;;4985410;28;20050;-74
2022/05/02 02:36:04;;;;;;;18.08;10.90;;;4.20;99.90;;;;;;4999496;28;85695;-73
2022/05/02 02:38:30;;;;;;;16.92;11.20;;;4.10;99.90;;;;;;4997554;28;20058;-74
2022/05/02 02:40:56;;;;;;;18.55;11.27;;;4.10;99.90;;;;;;5008714;28;248304;-74
2022/05/02 02:43:22;;;;;;;20.23;12.45;;;4.10;99.90;;;;;;5002372;28;20503;-74
2022/05/02 02:45:48;;;;;;;19.40;11.52;;;4.10;99.90;;;;;;5006153;28;241569;-73
2022/05/02 02:48:15;;;;;;;16.08;11.25;;;4.10;99.90;;;;;;5020037;22;20529;-79
2022/05/02 02:50:41;;;;;;;18.38;11.63;;;4.10;99.90;;;;;;4969092;28;95101;-78
2022/05/02 02:53:07;;;;;;;19.92;11.93;;;4.00;99.90;;;;;;5013206;28;20068;-78
2022/05/02 02:55:34;;;;;;;19.40;12.25;;;4.00;99.90;;;;;;4985775;28;74773;-78
2022/05/02 02:58:01;;;;;;;19.42;12.73;;;4.00;99.90;;;;;;5031043;28;20053;-78
2022/05/02 03:00:27;;;;;;;18.15;12.55;;;4.00;99.90;;;;;;4951845;28;151214;-78
2022/05/02 03:02:54;;;;;;;20.17;12.50;;;3.90;99.90;;;;;;4994889;28;20049;-78
2022/05/02 03:08:06;;;;;;;20.45;13.52;;;3.90;99.90;;;;;;5011586;28;20052;-78
2022/05/02 03:10:32;;;;;;;20.08;12.90;;;3.90;99.90;;;;;;4965359;28;45337;-77
2022/05/02 03:12:59;;;;;;;21.83;13.05;;;3.90;99.90;;;;;;5016445;28;20549;-78
2022/05/02 03:15:25;;;;;;;21.58;13.32;;;3.90;99.90;;;;;;4950019;28;151759;-77
2022/05/02 03:17:51;;;;;;;19.08;11.95;;;3.80;99.90;;;;;;5009450;28;20160;-78
2022/05/02 03:20:17;;;;;;;19.27;12.55;;;3.80;99.90;;;;;;4951727;28;126032;-79
2022/05/02 03:22:43;;;;;;;21.15;13.98;;;3.80;99.90;;;;;;5008019;28;20064;-79
2022/05/02 03:25:09;;;;;;;21.00;12.95;;;3.80;99.90;;;;;;4957904;28;23841;-78
2022/05/02 03:27:35;;;;;;;19.15;13.40;;;3.80;99.90;;;;;;5009741;28;20042;-78
2022/05/02 03:30:02;;;;;;;20.83;12.90;;;3.80;99.90;;;;;;4972231;28;22115;-79
2022/05/02 03:32:28;;;;;;;17.95;12.13;;;3.80;99.90;;;;;;5013807;28;20061;-79
2022/05/02 03:34:54;;;;;;;18.67;12.77;;;3.70;99.90;;;;;;4966791;28;209122;-79
2022/05/02 03:37:21;;;;;;;20.23;12.55;;;3.70;99.90;;;;;;4997641;28;20418;-79
2022/05/02 03:39:47;;;;;;;17.30;11.50;;;3.70;99.90;;;;;;4958967;28;220351;-79
2022/05/02 03:42:13;;;;;;;18.48;12.48;;;3.60;99.90;;;;;;5008281;28;20045;-80
2022/05/02 03:44:39;;;;;;;19.67;13.25;;;3.60;99.90;;;;;;4963196;28;208738;-79
2022/05/02 03:47:05;;;;;;;18.15;11.43;;;3.60;99.90;;;;;;5011089;28;20502;-80
2022/05/02 03:49:32;;;;;;;17.58;11.65;;;3.60;99.90;;;;;;4968076;28;95514;-80
2022/05/02 03:51:58;;;;;;;16.75;11.13;;;3.60;99.90;;;;;;5011291;28;20049;-79
2022/05/02 03:54:24;;;;;;;18.20;12.48;;;3.50;99.90;;;;;;4968203;28;147797;-79
2022/05/02 03:56:50;;;;;;;20.30;13.10;;;3.50;99.90;;;;;;5003471;28;20049;-79
2022/05/02 03:59:16;;;;;;;18.10;12.35;;;3.50;99.90;;;;;;4981233;28;160857;-79
2022/05/02 04:01:42;;;;;;;19.42;13.00;;;3.50;99.90;;;;;;5019382;28;20046;-79
2022/05/02 04:04:08;;;;;;;17.75;11.77;;;3.50;99.90;;;;;;4966826;28;166062;-79
2022/05/02 04:06:34;;;;;;;17.60;11.98;;;3.50;99.90;;;;;;5012409;28;20049;-79
2022/05/02 04:09:01;;;;;;;18.63;12.57;;;3.40;99.90;;;;;;4984858;28;115135;-78
2022/05/02 04:11:27;;;;;;;18.38;12.45;;;3.40;99.90;;;;;;5013099;28;20049;-79
2022/05/02 04:13:53;;;;;;;17.17;11.93;;;3.40;99.90;;;;;;4981653;28;20052;-79
2022/05/02 04:16:19;;;;;;;18.83;12.35;;;3.40;99.90;;;;;;4984168;28;20049;-79
2022/05/02 04:18:46;;;;;;;19.08;12.68;;;3.40;99.90;;;;;;4981910;28;20050;-79
2022/05/02 04:21:12;;;;;;;20.20;12.77;;;3.40;99.90;;;;;;4992679;28;26665;-79
2022/05/02 04:23:38;;;;;;;20.58;13.50;;;3.40;99.90;;;;;;4982601;28;20046;-78
2022/05/02 04:26:04;;;;;;;20.23;13.13;;;3.40;99.90;;;;;;4982238;28;66020;-77
2022/05/02 04:28:30;;;;;;;22.05;13.18;;;3.40;99.90;;;;;;4982742;28;20045;-78
2022/05/02 04:30:57;;;;;;;20.63;14.40;;;3.40;99.90;;;;;;4997853;28;157829;-78
2022/05/02 04:33:23;;;;;;;24.38;16.15;;;3.50;99.90;;;;;;4986641;28;20049;-79
2022/05/02 04:35:50;;;;;;;21.77;15.45;;;3.50;99.90;;;;;;4993844;28;207055;-79
2022/05/02 04:38:16;;;;;;;23.00;13.98;;;3.50;99.90;;;;;;4989889;28;20655;-79
2022/05/02 04:40:42;;;;;;;21.45;14.95;;;3.60;99.90;;;;;;4974827;28;177835;-77
2022/05/02 04:43:09;;;;;;;20.92;14.25;;;3.60;99.90;;;;;;5013138;28;20068;-79
2022/05/02 04:45:35;;;;;;;20.67;14.48;;;3.60;99.90;;;;;;4972154;28;196251;-78
2022/05/02 04:48:01;;;;;;;19.10;13.60;;;3.70;99.90;;;;;;5013367;28;20056;-79
2022/05/02 04:50:27;;;;;;;19.08;13.85;;;3.70;99.90;;;;;;4945673;28;236038;-78
2022/05/02 04:52:53;;;;;;;20.95;15.88;;;3.90;99.90;;;;;;5007486;28;20476;-78
2022/05/02 04:55:20;;;;;;;20.67;14.50;;;3.80;99.90;;;;;;4982667;28;138507;-79
2022/05/02 04:57:46;;;;;;;20.80;14.13;;;3.90;99.90;;;;;;5000818;28;20141;-79
2022/05/02 05:00:16;;;;;;;20.55;15.15;;;3.90;99.90;;;;;;4959323;28;205559;-79
2022/05/02 05:02:42;;;;;;;22.45;15.77;;;4.00;99.90;;;;;;5008398;28;20044;-79
2022/05/02 05:05:09;;;;;;;23.27;15.73;;;4.00;99.90;;;;;;4956807;28;155513;-79
2022/05/02 05:07:37;;;;;;;22.38;15.43;;;4.10;99.90;;;;;;5011146;28;20053;-80
2022/05/02 05:10:05;;;;;;;22.92;15.23;;;4.10;99.90;;;;;;4967951;28;198008;-79
2022/05/02 05:12:53;;;;;;;20.45;15.00;;;4.20;99.90;;;;;;5013045;28;20061;-80
2022/05/02 05:18:55;;;;;;;24.73;15.57;;;4.40;99.90;;;;;;4923629;28;20046;-79
2022/05/02 05:21:44;;;;;;;30.65;15.60;;;4.40;99.90;;;;;;4911326;28;20052;-80
2022/05/02 05:24:28;;;;;;;26.20;13.55;;;4.50;99.90;;;;;;4910858;28;176076;-80
2022/05/02 05:27:06;;;;;;;20.98;14.15;;;4.60;99.90;;;;;;4936846;28;20074;-80
2022/05/02 05:29:52;;;;;;;25.65;16.77;;;4.70;99.90;;;;;;4907148;28;257193;-79
2022/05/02 05:32:44;;;;;;;25.63;15.70;;;4.80;99.90;;;;;;4932941;28;20154;-79
2022/05/02 05:35:21;;;;;;;28.92;19.27;;;4.90;99.90;;;;;;4910228;28;171367;-79
2022/05/02 05:38:00;;;;;;;33.33;18.73;;;5.00;99.90;;;;;;4937882;28;20059;-80
2022/05/02 05:40:42;;;;;;;30.83;18.88;;;5.10;99.90;;;;;;4907773;28;215110;-79
2022/05/02 05:43:08;;;;;;;;;;;5.20;99.90;;;;;;4953264;28;20066;-78
2022/05/02 05:46:06;;;;;;;29.08;18.27;;;5.40;99.90;;;;;;4899597;28;239711;-78
2022/05/02 05:48:44;;;;;;;28.80;20.08;;;5.50;99.90;;;;;;4882316;29;20067;-78
2022/05/02 05:51:40;;;;;;;25.42;19.35;;;5.60;99.90;;;;;;4878092;29;257162;-79
2022/05/02 05:54:29;;;;;;;26.40;19.40;;;5.80;99.90;;;;;;4875643;28;240481;-79
2022/05/02 05:57:20;;;;;;;26.23;19.25;;;6.00;99.90;;;;;;4941470;28;20523;-77
2022/05/02 06:00:07;;;;;;;26.63;17.55;;;6.50;99.90;;;;;;4914942;28;127196;-79
2022/05/02 06:02:53;;;;;;;23.55;16.20;;;7.00;99.90;;;;;;4952869;28;20051;-78
2022/05/02 06:05:19;;;;;;;26.20;16.10;;;7.30;99.90;;;;;;4906221;28;40903;-78
2022/05/02 06:07:47;;;;;;;19.73;15.35;;;7.70;99.90;;;;;;4944781;28;20091;-79
2022/05/02 06:10:16;;;;;;;20.38;13.32;;;8.10;99.90;;;;;;4928572;28;88851;-79
2022/05/02 06:12:43;;;;;;;18.02;12.55;;;8.40;99.90;;;;;;4947666;28;20051;-79
2022/05/02 06:20:47;;;;;;;16.67;11.13;;;9.30;99.90;;;;;;4927606;28;146035;-79
2022/05/02 06:23:14;;;;;;;19.35;11.05;;;9.60;99.90;;;;;;4954903;28;20047;-79
2022/05/02 06:25:41;;;;;;;15.95;10.68;;;9.90;99.90;;;;;;4936542;28;97182;-79
2022/05/02 06:28:08;;;;;;;19.60;10.23;;;10.20;99.90;;;;;;5031355;28;20061;-80
2022/05/02 06:30:37;;;;;;;17.50;9.52;;;10.50;99.90;;;;;;4968201;28;208628;-80
2022/05/02 06:33:11;;;;;;;20.02;9.65;;;10.80;99.90;;;;;;4997039;28;20049;-80
2022/05/02 06:36:15;;;;;;;16.27;9.43;;;11.10;99.90;;;;;;4951996;28;155912;-80
2022/05/02 06:39:02;;;;;;;15.30;9.20;;;11.40;99.90;;;;;;4938574;28;20054;-80
2022/05/02 06:41:43;;;;;;;14.32;8.75;;;11.70;99.90;;;;;;4952600;28;20054;-80
2022/05/02 06:44:15;;;;;;;16.43;8.57;;;12.00;99.90;;;;;;4931986;28;132034;-80
2022/05/02 06:47:00;;;;;;;18.27;8.43;;;12.20;99.90;;;;;;4967555;28;20408;-80
2022/05/02 06:49:27;;;;;;;14.40;7.75;;;12.40;99.90;;;;;;4931039;28;111122;-80
2022/05/02 06:51:56;;;;;;;11.48;7.13;;;12.70;99.90;;;;;;4984944;28;20061;-80
2022/05/02 06:54:41;;;;;;;12.05;7.28;;;13.00;99.90;;;;;;4929106;28;61423;-80
2022/05/02 06:57:34;;;;;;;12.93;6.82;;;13.10;99.90;;;;;;4981002;28;20404;-81
2022/05/02 07:00:07;;;;;;;12.05;7.28;;;13.30;99.90;;;;;;4950559;28;82801;-81
2022/05/02 07:02:42;;;;;;;14.50;6.78;;;13.60;99.90;;;;;;4970926;28;20061;-81
2022/05/02 07:05:22;;;;;;;12.18;7.30;;;13.90;99.90;;;;;;4911511;28;231173;-81
2022/05/02 07:07:58;;;;;;;12.48;7.20;;;14.20;99.90;;;;;;4990729;28;20197;-80
2022/05/02 07:10:31;;;;;;;12.50;7.22;;;14.40;99.90;;;;;;4904914;28;107636;-81
2022/05/02 07:12:57;;;;;;;12.15;6.97;;;14.50;99.90;;;;;;4975109;28;20058;-80
2022/05/02 07:15:32;;;;;;;12.25;6.57;;;14.70;99.90;;;;;;4935377;28;20052;-80
2022/05/02 07:18:06;;;;;;;11.65;5.95;;;14.80;99.90;;;;;;4999082;28;20064;-81
2022/05/02 07:20:35;;;;;;;12.98;6.28;;;14.90;99.90;;;;;;4944364;28;97312;-81
2022/05/02 07:23:07;;;;;;;12.07;6.60;;;15.10;99.90;;;;;;5005042;28;20053;-81
2022/05/02 07:25:38;;;;;;;11.30;6.43;;;15.30;99.90;;;;;;4961188;28;238851;-81
2022/05/02 07:28:23;;;;;;;14.93;6.18;;;15.60;99.90;;;;;;4997089;28;20052;-81
2022/05/02 07:30:55;;;;;;;12.07;5.78;;;15.80;99.90;;;;;;4960261;28;206776;-81
2022/05/02 07:33:21;;;;;;;11.60;5.57;;;15.90;99.90;;;;;;4985616;28;20060;-81
2022/05/02 07:35:49;;;;;;;11.27;5.72;;;16.20;99.90;;;;;;5000905;28;45024;-81
2022/05/02 07:38:18;;;;;;;11.85;5.68;;;16.40;99.90;;;;;;5012394;28;20049;-82
2022/05/02 07:41:22;;;;;;;12.48;5.63;;;16.50;99.90;;;;;;5002246;28;25095;-81
2022/05/02 07:43:34;;;;;;;10.60;5.20;;;16.70;99.90;;;;;;4996992;28;20053;-81
2022/05/02 07:46:03;;;;;;;9.65;5.45;;;17.00;99.90;;;;;;5013536;28;46390;-81
2022/05/02 07:48:36;;;;;;;12.65;5.45;;;17.40;99.90;;;;;;4966848;28;20053;-82
2022/05/02 07:51:03;;;;;;;9.98;5.05;;;17.60;99.50;;;;;;4995739;28;189988;-81
2022/05/02 07:53:32;;;;;;;11.38;5.32;;;17.80;99.30;;;;;;4982868;28;20057;-80
2022/05/02 07:56:00;;;;;;;11.73;5.30;;;18.10;98.00;;;;;;4995145;28;160071;-81
2022/05/02 07:58:27;;;;;;;10.45;4.70;;;18.30;97.10;;;;;;5001567;28;20068;-81
2022/05/02 08:00:54;;;;;;;9.52;4.85;;;18.40;95.90;;;;;;4998013;28;90003;-81
2022/05/02 08:03:27;;;;;;;10.63;4.60;;;18.50;95.90;;;;;;4990074;28;20050;-83
2022/05/02 08:06:01;;;;;;;9.88;5.00;;;18.70;95.70;;;;;;4965893;28;170373;-83
2022/05/02 08:08:36;;;;;;;11.57;5.00;;;19.00;93.70;;;;;;4983528;28;20121;-82
2022/05/02 08:11:23;;;;;;;9.80;4.70;;;19.10;93.60;;;;;;4998885;28;109028;-81
2022/05/02 08:14:02;;;;;;;11.40;4.95;;;19.20;92.80;;;;;;4966259;28;20537;-81
2022/05/02 08:16:33;;;;;;;12.32;5.05;;;19.50;92.60;;;;;;5001646;28;20054;-81
2022/05/02 08:19:22;;;;;;;10.88;5.28;;;19.60;91.00;;;;;;4969106;28;20086;-81
2022/05/02 08:27:15;;;;;;;9.75;4.93;;;19.90;85.40;;;;;;5018164;28;20072;-82
2022/05/02 08:28:22;;;;;;;11.20;5.53;;;20.30;84.30;;;;;;5011629;28;20049;-81
2022/05/02 08:31:02;;;;;;;10.82;5.30;;;20.50;84.70;;;;;;4948232;28;167396;-82
2022/05/02 08:33:31;;;;;;;11.65;5.57;;;20.70;80.60;;;;;;4982147;28;20068;-82
2022/05/02 08:35:58;;;;;;;11.85;6.10;;;21.00;80.50;;;;;;4992819;28;199576;-82
2022/05/02 08:38:40;;;;;;;13.38;5.35;;;21.10;74.60;;;;;;4981045;28;20045;-82
2022/05/02 08:41:28;;;;;;;10.75;5.45;;;20.80;69.50;;;;;;4984488;28;31417;-82
2022/05/02 08:44:28;;;;;;;11.52;5.30;;;20.80;71.00;;;;;;4970591;28;197008;-82
2022/05/02 08:47:31;;;;;;;12.10;5.90;;;20.90;67.90;;;;;;5004478;28;20057;-81
2022/05/02 08:50:18;;;;;;;10.35;5.90;;;20.70;64.00;;;;;;4982766;28;83075;-82
2022/05/02 08:53:03;;;;;;;10.98;6.10;;;20.80;66.90;;;;;;5022574;28;20041;-82
2022/05/02 08:56:00;;;;;;;11.50;6.00;;;21.20;64.70;;;;;;4966209;28;38332;-81
2022/05/02 08:58:42;;;;;;;9.90;5.65;;;21.70;66.10;;;;;;4980345;28;20068;-82
2022/05/02 09:01:17;;;;;;;11.30;5.93;;;22.00;66.30;;;;;;4999063;28;35610;-83
2022/05/02 09:04:05;;;;;;;12.32;6.05;;;22.40;61.70;;;;;;5020705;23;20059;-75
2022/05/02 09:06:46;;;;;;;10.82;5.97;;;21.90;52.70;;;;;;5010713;28;129245;-74
2022/05/02 09:09:37;;;;;;;10.60;5.73;;;21.50;58.30;;;;;;5017733;28;78610;-74
2022/05/02 09:12:36;;;;;;;10.13;5.88;;;21.90;59.00;;;;;;5033565;28;20045;-74
2022/05/02 09:15:47;;;;;;;10.93;5.95;;;22.20;55.80;;;;;;5000585;23;20073;-83
2022/05/02 09:18:35;;;;;;;11.13;5.80;;;22.40;56.10;;;;;;4941526;28;20063;-85
2022/05/02 09:21:28;;;;;;;9.73;5.70;;;22.40;55.80;;;;;;4925080;28;62067;-83
2022/05/02 09:24:22;;;;;;;10.93;5.78;;;22.70;53.30;;;;;;4928309;28;246082;-82
2022/05/02 09:26:56;;;;;;;12.77;5.72;;;22.80;53.80;;;;;;4952966;28;20047;-83
2022/05/02 09:29:40;;;;;;;11.23;5.78;;;22.70;49.90;;;;;;4913191;28;128630;-82
2022/05/02 09:32:16;;;;;;;10.75;5.93;;;22.10;52.30;;;;;;4953088;28;20070;-82
2022/05/02 09:34:52;;;;;;;10.93;5.43;;;22.20;52.70;;;;;;4941688;28;232414;-83
2022/05/02 09:37:25;;;;;;;10.80;5.70;;;22.80;52.20;;;;;;4948007;28;20494;-83
2022/05/02 09:40:17;;;;;;;11.20;5.68;;;23.50;51.20;;;;;;4919400;28;170899;-82
2022/05/02 09:43:20;;;;;;;11.25;5.50;;;24.10;49.40;;;;;;4942831;28;20096;-84
2022/05/02 09:52:15;;;;;;;10.45;5.53;;;25.10;47.90;;;;;;4903883;29;20067;-82
2022/05/02 09:58:03;;;;;;;10.80;5.65;;;24.60;44.40;;;;;;4931958;29;20071;-83
2022/05/02 10:01:06;;;;;;;11.10;5.55;;;24.50;43.20;;;;;;4879626;29;241054;-82
2022/05/02 10:03:40;;;;;;;11.00;5.50;;;24.30;45.50;;;;;;4886108;29;20054;-83
2022/05/02 10:06:26;;;;;;;11.93;5.25;;;24.60;43.60;;;;;;4906595;29;170771;-82
2022/05/02 10:09:04;;;;;;;9.95;5.55;;;24.20;43.30;;;;;;4921625;28;20056;-83
2022/05/02 10:11:49;;;;;;;12.32;5.43;;;24.50;42.70;;;;;;4900282;29;20043;-83
2022/05/02 10:14:37;;;;;;;14.15;5.32;;;24.80;42.80;;;;;;4876364;28;151837;-83
2022/05/02 10:17:07;;;;;;;10.75;5.10;;;24.90;40.10;;;;;;4911472;29;20418;-82
2022/05/02 10:19:48;;;;;;;9.85;5.15;;;24.90;42.30;;;;;;4889989;29;248372;-82
2022/05/02 10:22:29;;;;;;;;;;;24.70;40.60;;;;;;4912126;29;20427;-82
2022/05/02 10:25:18;;;;;;;10.18;5.28;;;24.10;42.00;;;;;;4875713;29;239843;-82
2022/05/02 10:28:21;;;;;;;10.15;5.15;;;24.60;43.70;;;;;;4904765;29;20190;-83
2022/05/02 10:31:05;;;;;;;9.27;4.80;;;25.00;41.40;;;;;;4911671;28;184269;-83
2022/05/02 10:33:36;;;;;;;9.85;5.03;;;25.20;40.80;;;;;;4945838;28;20050;-83
2022/05/02 10:36:05;;;;;;;11.30;4.90;;;25.30;40.20;;;;;;4987094;28;64807;-83
2022/05/02 10:38:34;;;;;;;10.23;4.72;;;25.70;41.30;;;;;;4946154;28;20046;-83
2022/05/02 10:41:27;;;;;;;11.13;4.90;;;26.20;40.40;;;;;;4990912;28;20062;-83
2022/05/02 10:44:05;;;;;;;10.13;4.50;;;26.50;40.10;;;;;;4939202;28;20271;-83
2022/05/02 10:46:33;;;;;;;11.88;5.35;;;26.90;39.20;;;;;;4934451;28;20050;-84
2022/05/02 10:49:40;;;;;;;11.63;4.72;;;26.50;38.70;;;;;;4933914;28;131011;-82
2022/05/02 10:52:47;;;;;;;9.38;4.40;;;26.50;37.40;;;;;;4949149;28;20047;-83
2022/05/02 10:55:37;;;;;;;9.40;4.40;;;26.40;37.90;;;;;;4892817;29;41558;-83
2022/05/02 10:58:05;;;;;;;9.75;4.53;;;26.50;35.80;;;;;;4945132;29;20461;-83
2022/05/02 11:00:33;;;;;;;10.02;4.55;;;26.40;37.70;;;;;;4903131;28;168127;-83
2022/05/02 11:03:36;;;;;;;9.52;4.50;;;26.00;37.00;;;;;;4901178;29;20077;-82
2022/05/02 11:06:20;;;;;;;11.00;4.50;;;25.60;36.50;;;;;;4859037;28;129479;-83
2022/05/02 11:08:51;;;;;;;9.90;4.90;;;25.10;37.90;;;;;;4903726;28;20043;-83
2022/05/02 11:11:31;;;;;;;9.68;4.38;;;25.30;37.90;;;;;;4916826;29;201550;-83
2022/05/02 11:14:06;;;;;;;9.50;4.13;;;25.70;37.40;;;;;;4867551;28;31175;-81
2022/05/02 11:16:52;;;;;;;10.90;4.30;;;25.90;37.40;;;;;;4913651;29;20496;-83
2022/05/02 11:22:38;;;;;;;10.02;4.30;;;25.80;34.90;;;;;;4933817;29;20048;-82
2022/05/02 11:25:24;;;;;;;11.27;3.90;;;25.40;36.30;;;;;;4856390;29;146100;-82
2022/05/02 11:28:11;;;;;;;8.93;4.60;;;25.80;35.40;;;;;;4890814;29;20448;-83
2022/05/02 11:30:45;;;;;;;11.00;4.50;;;25.10;34.40;;;;;;4848988;28;168111;-82
2022/05/02 11:33:31;;;;;;;11.18;4.30;;;25.00;37.20;;;;;;4925718;28;20058;-83
2022/05/02 11:36:03;;;;;;;10.38;4.45;;;25.50;37.80;;;;;;4908214;28;153282;-83
2022/05/02 11:38:54;;;;;;;9.60;4.03;;;26.50;38.10;;;;;;4938656;28;20057;-83
2022/05/02 11:41:23;;;;;;;13.73;4.40;;;27.30;37.70;;;;;;4940398;28;20708;-83
2022/05/02 11:44:08;;;;;;;9.18;3.80;;;27.90;37.20;;;;;;4924339;28;20061;-83
2022/05/02 11:46:57;;;;;;;11.85;4.28;;;28.20;33.90;;;;;;4967457;28;20043;-83
2022/05/02 11:49:50;;;;;;;9.00;3.78;;;27.80;34.30;;;;;;4920889;28;107366;-82
2022/05/02 11:52:31;;;;;;;8.75;3.83;;;27.40;34.10;;;;;;4940484;28;20047;-84
2022/05/02 11:55:01;;;;;;;8.60;3.92;;;27.50;36.00;;;;;;4907759;28;174432;-83
2022/05/02 11:57:35;;;;;;;9.27;4.00;;;27.50;33.00;;;;;;4943953;28;20047;-83
2022/05/02 12:00:07;;;;;;;10.50;3.90;;;26.90;34.40;;;;;;4907584;28;171807;-83
2022/05/02 12:02:50;;;;;;;9.10;4.20;;;27.10;35.60;;;;;;4932536;28;20532;-82
2022/05/02 12:05:21;;;;;;;8.57;4.18;;;26.90;34.20;;;;;;4902547;28;281200;-83
2022/05/02 12:07:51;;;;;;;8.95;4.55;;;26.90;34.80;;;;;;4974663;28;20523;-82
2022/05/02 12:10:20;;;;;;;9.40;4.22;;;26.90;35.10;;;;;;4963092;28;53141;-83
2022/05/02 12:12:51;;;;;;;10.75;4.50;;;27.20;35.20;;;;;;4986929;28;20381;-83
2022/05/02 12:15:18;;;;;;;10.07;4.25;;;27.70;36.20;;;;;;4955033;28;237816;-83
2022/05/02 12:18:04;;;;;;;8.77;4.05;;;28.10;35.30;;;;;;5000721;28;20050;-83
2022/05/02 12:20:31;;;;;;;10.95;4.20;;;28.50;34.20;;;;;;4954572;28;163179;-82
2022/05/02 12:23:18;;;;;;;9.02;4.43;;;28.60;35.50;;;;;;4976585;28;20042;-82
2022/05/02 12:25:49;;;;;;;9.65;3.95;;;28.90;34.30;;;;;;4919896;28;196706;-82
2022/05/02 12:28:37;;;;;;;10.93;4.18;;;28.80;34.50;;;;;;4971561;28;20492;-83
2022/05/02 12:31:08;;;;;;;8.55;4.07;;;28.50;32.70;;;;;;4946142;28;206317;-83
2022/05/02 12:33:43;;;;;;;9.80;4.10;;;28.00;34.20;;;;;;4979156;28;20076;-83
2022/05/02 12:36:20;;;;;;;10.13;4.10;;;27.50;32.30;;;;;;4983315;28;199237;-82
2022/05/02 12:39:04;;;;;;;9.65;4.13;;;26.60;33.10;;;;;;4933085;28;20412;-82
2022/05/02 12:41:49;;;;;;;8.30;3.90;;;26.80;34.30;;;;;;4956233;28;20038;-82
2022/05/02 12:44:17;;;;;;;10.05;3.90;;;27.10;34.20;;;;;;4939329;28;207017;-84
2022/05/02 12:46:48;;;;;;;9.68;4.10;;;26.60;33.60;;;;;;4963360;28;20142;-83
2022/05/02 12:49:52;;;;;;;10.70;3.92;;;26.70;32.90;;;;;;4959419;28;126028;-82
2022/05/02 12:52:20;;;;;;;10.93;3.60;;;26.80;34.80;;;;;;4968029;28;20046;-82
2022/05/02 12:54:49;;;;;;;8.85;3.70;;;27.60;35.60;;;;;;4932708;28;62276;-83
2022/05/02 13:02:52;;;;;;;12.02;4.00;;;27.00;34.00;;;;;;4971365;28;20061;-83
2022/05/02 13:05:23;;;;;;;8.80;3.72;;;26.80;35.60;;;;;;4948576;28;142358;-83
2022/05/02 13:07:54;;;;;;;9.18;4.28;;;27.00;34.80;;;;;;5001193;28;20081;-83
2022/05/02 13:10:28;;;;;;;9.57;3.90;;;26.40;33.90;;;;;;4956829;28;223010;-82
2022/05/02 13:13:10;;;;;;;10.73;3.60;;;26.30;35.00;;;;;;5001034;28;20058;-83
2022/05/02 13:15:36;;;;;;;10.82;4.30;;;26.20;35.00;;;;;;4978962;28;70021;-82
2022/05/02 13:18:14;;;;;;;13.20;3.95;;;25.70;35.50;;;;;;4990687;28;20419;-82
2022/05/02 13:20:44;;;;;;;8.15;3.92;;;25.80;36.90;;;;;;4944384;28;28091;-83
2022/05/02 13:23:13;;;;;;;9.85;4.50;;;26.10;37.30;;;;;;4991395;28;20445;-83
2022/05/02 13:26:11;;;;;;;10.23;4.50;;;25.60;35.10;;;;;;4960891;28;48826;-82
2022/05/02 13:29:02;;;;;;;9.55;4.85;;;25.80;36.90;;;;;;4947484;28;20054;-82
2022/05/02 13:31:44;;;;;;;10.40;4.07;;;25.80;35.60;;;;;;4958057;28;20038;-83
2022/05/02 13:34:20;;;;;;;8.60;4.20;;;26.10;36.90;;;;;;4943071;28;150820;-83
2022/05/02 13:36:50;;;;;;;9.05;3.80;;;26.20;34.20;;;;;;4973284;28;20046;-83
2022/05/02 13:39:40;;;;;;;9.68;4.25;;;26.30;36.30;;;;;;4939379;28;139484;-83
2022/05/02 13:42:16;;;;;;;9.77;4.32;;;26.10;36.20;;;;;;4979125;28;20046;-83
2022/05/02 13:45:02;;;;;;;9.90;4.70;;;26.70;37.70;;;;;;4947833;28;88704;-83
2022/05/02 13:47:42;;;;;;;11.57;4.68;;;26.70;33.30;;;;;;4984537;28;20054;-83